Wednesday, May 23, 2018, 11:31 PM CDT
Back to Local

KDPA, Chicago/west Ch Dupage

Location: West Chicago, IL, United States Lat: 41.9
Local Time: 11:31 PM CDT ( 4:31 GMT) Lon: -88.25
Time Zone: US/Central Elev: 757 ft

Show me the last for .
Show Decoded

2018-05-23 22:52 METAR KDPA 240352Z 10003KT 10SM CLR 18/08 A3018 RMK AO2 SLP216 T01830083 =
2018-05-23 21:52 METAR KDPA 240252Z 10005KT 10SM CLR 19/09 A3018 RMK AO2 SLP215 T01940089 53015 =
2018-05-23 20:52 METAR KDPA 240152Z 00000KT 10SM CLR 21/09 A3016 RMK AO2 SLP210 T02060089 =
2018-05-23 19:52 METAR KDPA 240052Z 10006KT 10SM CLR 23/09 A3014 RMK AO2 SLP205 T02280089 =
2018-05-23 18:52 METAR KDPA 232352Z 10006KT 10SM CLR 24/11 A3013 RMK AO2 SLP201 T02440111 10272
                 20233 55005 =
2018-05-23 17:52 METAR KDPA 232252Z 11005KT 10SM CLR 27/11 A3013 RMK AO2 SLP199 T02670106 =
2018-05-23 16:52 METAR KDPA 232152Z 23003KT 8SM CLR 26/14 A3013 RMK AO2 SLP201 T02610139 =
2018-05-23 15:52 METAR KDPA 232052Z VRB03KT 10SM CLR 27/14 A3015 RMK AO2 SLP206 T02670139 58017 =
2018-05-23 14:52 METAR KDPA 231952Z VRB03KT 10SM CLR 26/13 A3017 RMK AO2 SLP214 T02560133 =
2018-05-23 13:52 METAR KDPA 231852Z 00000KT 10SM CLR 25/13 A3019 RMK AO2 SLP220 T02500128 =
2018-05-23 12:52 METAR KDPA 231752Z 19003KT 10SM CLR 23/12 A3020 RMK AO2 SLP225 T02330117 10244
                 20133 58001 =
2018-05-23 11:52 METAR KDPA 231652Z 00000KT 8SM CLR 23/13 A3020 RMK AO2 SLP225 T02280133 =
2018-05-23 10:52 METAR KDPA 231552Z 00000KT 8SM CLR 22/14 A3020 RMK AO2 SLP225 T02170139 =
2018-05-23 09:52 METAR KDPA 231452Z 06003KT 6SM HZ CLR 21/16 A3020 RMK AO2 SLP225 T02060156 50006
                 =
2018-05-23 08:52 METAR KDPA 231352Z 00000KT 4SM HZ CLR 18/15 A3020 RMK AO2 SLP226 T01830150 =
2018-05-23 07:52 METAR KDPA 231252Z 00000KT 4SM BR CLR 15/14 A3019 RMK AO2 SLP221 T01500139 =
2018-05-23 06:52 METAR KDPA 231152Z 00000KT 1 3/4SM BR CLR 13/13 A3018 RMK AO2 SLP219 T01330133
                 10133 20089 53012 =
2018-05-23 06:11 METAR KDPA 231111Z 00000KT 1 1/4SM BR CLR 11/11 A3017 RMK AO2 T01060106 =
2018-05-23 05:52 METAR KDPA 231052Z 00000KT 3/4SM BR CLR 11/11 A3016 RMK AO2 SLP212 T01060106
                 RVRNO =
2018-05-23 05:45 METAR KDPA 231045Z 00000KT 1SM BR CLR 10/10 A3016 RMK AO2 T01000100 RVRNO =
2018-05-23 05:26 METAR KDPA 231026Z 13003KT 1SM BR VV004 10/10 A3015 RMK AO2 T01000100 RVRNO =
2018-05-23 05:07 METAR KDPA 231007Z 17003KT 1/4SM FG VV004 09/09 A3015 RMK AO2 T00890089 RVRNO =
2018-05-23 04:55 METAR KDPA 230955Z 00000KT 3/4SM BR VV004 11/11 A3014 RMK AO2 T01060106 RVRNO =
2018-05-23 04:52 METAR KDPA 230952Z 00000KT 1 1/2SM BR CLR 11/11 A3014 RMK AO2 SLP207 T01060106 =
2018-05-23 04:11 METAR KDPA 230911Z 00000KT 3SM BR CLR 11/11 A3013 RMK AO2 T01060106 =
2018-05-23 04:05 METAR KDPA 230905Z 00000KT 1 1/2SM BR CLR 11/11 A3012 RMK AO2 T01060106 =
2018-05-23 03:52 METAR KDPA 230852Z 00000KT 2 1/2SM BR FEW003 10/10 A3012 RMK AO2 SLP198
                 T01000100 53006 =
2018-05-23 03:50 METAR KDPA 230850Z 00000KT 2SM BR FEW003 11/11 A3012 RMK AO2 =
2018-05-23 03:45 METAR KDPA 230845Z 00000KT 1SM BR VV003 11/11 A3011 RMK AO2 T01060106 RVRNO =
2018-05-23 03:17 METAR KDPA 230817Z 00000KT 1/4SM FG VV004 11/11 A3011 RMK AO2 T01110111 RVRNO =
2018-05-23 03:09 METAR KDPA 230809Z 00000KT 1/2SM FG VV004 11/11 A3011 RMK AO2 T01060106 RVRNO =
2018-05-23 02:59 METAR KDPA 230759Z 00000KT 1 1/2SM BR CLR 11/11 A3010 RMK AO2 T01110111 =
2018-05-23 02:52 METAR KDPA 230752Z 00000KT 3SM BR CLR 11/11 A3010 RMK AO2 SLP194 T01110111 =
2018-05-23 02:28 METAR KDPA 230728Z 00000KT 3SM BR CLR 12/12 A3010 RMK AO2 T01170117 =
2018-05-23 02:07 METAR KDPA 230707Z 00000KT 2SM BR CLR 12/12 A3010 RMK AO2 T01170117 =
2018-05-23 01:59 METAR KDPA 230659Z 00000KT 1 3/4SM BR CLR 11/11 A3011 RMK AO2 T01110111 =
2018-05-23 01:52 METAR KDPA 230652Z 00000KT 3SM BR CLR 11/11 A3011 RMK AO2 SLP195 T01060106 =
2018-05-23 01:06 METAR KDPA 230606Z 00000KT 3SM BR CLR 12/12 A3010 RMK AO2 T01170117 =
2018-05-23 00:59 METAR KDPA 230559Z 00000KT 1/2SM FG CLR 12/12 A3010 RMK AO2 T01170117 RVRNO =
2018-05-23 00:52 METAR KDPA 230552Z 00000KT 5SM BR CLR 12/12 A3010 RMK AO2 SLP192 T01170117 10194
                 20111 402110111 53001 =
2018-05-23 00:49 METAR KDPA 230549Z 00000KT 5SM BR CLR 12/12 A3010 RMK AO2 =
2018-05-23 00:30 METAR KDPA 230530Z 19003KT 1/2SM FG CLR 12/12 A3010 RMK AO2 T01170117 RVRNO =
2018-05-23 00:22 METAR KDPA 230522Z 00000KT 1/4SM FG VV004 12/12 A3010 RMK AO2 T01170117 RVRNO =
2018-05-23 00:14 METAR KDPA 230514Z 00000KT 1/2SM FG VV004 12/12 A3010 RMK AO2 T01170117 RVRNO =
2018-05-23 00:05 METAR KDPA 230505Z 00000KT 1 3/4SM BR CLR 12/12 A3010 RMK AO2 T01220122 =
2018-05-22 23:52 METAR KDPA 230452Z 00000KT 4SM BR CLR 12/12 A3009 RMK AO2 SLP190 T01220122 =

Support USWX by starting your Amazon purchase here.